sensor_id;sensor_type;location;lat;lon;timestamp;pressure;altitude;pressure_sealevel;temperature;humidity
21401;BME280;18038;50.166;18.908;2023-05-07T00:00:41;98134.47;;;8.31;79.33
21401;BME280;18038;50.166;18.908;2023-05-07T00:03:48;98132.91;;;8.37;79.23
21401;BME280;18038;50.166;18.908;2023-05-07T00:06:57;98141.16;;;8.27;79.55
21401;BME280;18038;50.166;18.908;2023-05-07T00:10:06;98141.25;;;8.10;78.96
21401;BME280;18038;50.166;18.908;2023-05-07T00:13:15;98139.91;;;8.15;79.62
21401;BME280;18038;50.166;18.908;2023-05-07T00:16:24;98135.69;;;8.20;79.66
21401;BME280;18038;50.166;18.908;2023-05-07T00:19:30;98139.00;;;8.22;79.47
21401;BME280;18038;50.166;18.908;2023-05-07T00:22:40;98146.13;;;8.30;78.53
21401;BME280;18038;50.166;18.908;2023-05-07T00:25:46;98142.19;;;8.18;78.34
21401;BME280;18038;50.166;18.908;2023-05-07T00:28:53;98138.72;;;8.17;78.63
21401;BME280;18038;50.166;18.908;2023-05-07T00:32:08;98137.59;;;8.12;79.04
21401;BME280;18038;50.166;18.908;2023-05-07T00:35:15;98145.28;;;8.06;79.29
21401;BME280;18038;50.166;18.908;2023-05-07T00:38:24;98153.25;;;8.06;79.54
21401;BME280;18038;50.166;18.908;2023-05-07T00:41:31;98153.19;;;8.15;79.35
21401;BME280;18038;50.166;18.908;2023-05-07T00:44:37;98147.06;;;8.14;79.35
21401;BME280;18038;50.166;18.908;2023-05-07T00:47:45;98146.56;;;8.10;79.27
21401;BME280;18038;50.166;18.908;2023-05-07T00:50:52;98153.97;;;8.23;79.29
21401;BME280;18038;50.166;18.908;2023-05-07T00:54:03;98156.56;;;8.08;78.60
21401;BME280;18038;50.166;18.908;2023-05-07T00:57:10;98159.03;;;8.10;79.30
21401;BME280;18038;50.166;18.908;2023-05-07T01:00:18;98156.44;;;8.02;79.01
21401;BME280;18038;50.166;18.908;2023-05-07T01:03:31;98151.94;;;8.02;79.44
21401;BME280;18038;50.166;18.908;2023-05-07T01:06:39;98156.78;;;7.99;78.96
21401;BME280;18038;50.166;18.908;2023-05-07T01:09:49;98158.09;;;8.03;79.07
21401;BME280;18038;50.166;18.908;2023-05-07T01:12:58;98160.97;;;7.93;79.67
21401;BME280;18038;50.166;18.908;2023-05-07T01:16:09;98154.19;;;7.91;79.38
21401;BME280;18038;50.166;18.908;2023-05-07T01:19:18;98157.19;;;7.87;79.50
21401;BME280;18038;50.166;18.908;2023-05-07T01:22:31;98160.13;;;7.61;80.41
21401;BME280;18038;50.166;18.908;2023-05-07T01:25:41;98159.63;;;7.66;79.86
21401;BME280;18038;50.166;18.908;2023-05-07T01:28:47;98160.25;;;7.68;79.33
21401;BME280;18038;50.166;18.908;2023-05-07T01:31:59;98157.75;;;7.75;79.28
21401;BME280;18038;50.166;18.908;2023-05-07T01:35:10;98156.97;;;7.66;79.90
21401;BME280;18038;50.166;18.908;2023-05-07T01:38:23;98154.97;;;7.60;80.06
21401;BME280;18038;50.166;18.908;2023-05-07T01:41:30;98166.66;;;7.51;81.03
21401;BME280;18038;50.166;18.908;2023-05-07T01:44:37;98163.91;;;7.67;80.36
21401;BME280;18038;50.166;18.908;2023-05-07T01:47:44;98163.81;;;7.52;81.17
21401;BME280;18038;50.166;18.908;2023-05-07T01:50:52;98158.31;;;7.54;81.09
21401;BME280;18038;50.166;18.908;2023-05-07T01:54:03;98154.66;;;7.55;80.92
21401;BME280;18038;50.166;18.908;2023-05-07T01:57:12;98162.97;;;7.52;80.78
21401;BME280;18038;50.166;18.908;2023-05-07T02:00:19;98151.38;;;7.44;81.48
21401;BME280;18038;50.166;18.908;2023-05-07T02:03:28;98148.44;;;7.39;81.26
21401;BME280;18038;50.166;18.908;2023-05-07T02:06:43;98156.72;;;7.20;81.81
21401;BME280;18038;50.166;18.908;2023-05-07T02:09:54;98157.78;;;7.11;82.76
21401;BME280;18038;50.166;18.908;2023-05-07T02:13:05;98154.94;;;7.04;82.69
21401;BME280;18038;50.166;18.908;2023-05-07T02:16:13;98150.16;;;7.08;83.26
21401;BME280;18038;50.166;18.908;2023-05-07T02:19:20;98155.94;;;7.03;82.91
21401;BME280;18038;50.166;18.908;2023-05-07T02:22:27;98153.28;;;7.03;83.45
21401;BME280;18038;50.166;18.908;2023-05-07T02:25:36;98154.78;;;7.14;83.21
21401;BME280;18038;50.166;18.908;2023-05-07T02:28:43;98153.59;;;7.16;82.81
21401;BME280;18038;50.166;18.908;2023-05-07T02:31:50;98153.72;;;7.23;82.67
21401;BME280;18038;50.166;18.908;2023-05-07T02:34:57;98160.72;;;7.24;81.90
21401;BME280;18038;50.166;18.908;2023-05-07T02:38:03;98161.06;;;7.21;81.24
21401;BME280;18038;50.166;18.908;2023-05-07T02:41:13;98157.44;;;7.14;82.13
21401;BME280;18038;50.166;18.908;2023-05-07T02:44:19;98164.03;;;7.26;81.57
21401;BME280;18038;50.166;18.908;2023-05-07T02:47:27;98162.03;;;7.20;81.43
21401;BME280;18038;50.166;18.908;2023-05-07T02:50:36;98159.72;;;7.17;81.40
21401;BME280;18038;50.166;18.908;2023-05-07T02:53:43;98168.19;;;7.20;81.58
21401;BME280;18038;50.166;18.908;2023-05-07T02:56:51;98170.38;;;7.09;81.27
21401;BME280;18038;50.166;18.908;2023-05-07T02:59:58;98175.03;;;7.07;81.51
21401;BME280;18038;50.166;18.908;2023-05-07T03:03:07;98179.34;;;7.08;80.83
21401;BME280;18038;50.166;18.908;2023-05-07T03:06:14;98174.53;;;7.03;80.88
21401;BME280;18038;50.166;18.908;2023-05-07T03:09:20;98181.19;;;6.91;81.30
21401;BME280;18038;50.166;18.908;2023-05-07T03:12:30;98183.19;;;6.81;81.56
21401;BME280;18038;50.166;18.908;2023-05-07T03:15:36;98186.84;;;6.63;82.25
21401;BME280;18038;50.166;18.908;2023-05-07T03:18:43;98186.84;;;6.47;82.78
21401;BME280;18038;50.166;18.908;2023-05-07T03:21:50;98195.28;;;6.42;83.04
21401;BME280;18038;50.166;18.908;2023-05-07T03:24:57;98201.56;;;6.41;83.38
21401;BME280;18038;50.166;18.908;2023-05-07T03:28:05;98206.88;;;6.41;82.58
21401;BME280;18038;50.166;18.908;2023-05-07T03:31:18;98211.03;;;6.44;83.11
21401;BME280;18038;50.166;18.908;2023-05-07T03:34:24;98210.22;;;6.51;82.79
21401;BME280;18038;50.166;18.908;2023-05-07T03:37:31;98210.72;;;6.55;82.49
21401;BME280;18038;50.166;18.908;2023-05-07T03:40:38;98217.19;;;6.44;82.70
21401;BME280;18038;50.166;18.908;2023-05-07T03:43:48;98214.88;;;6.49;83.33
21401;BME280;18038;50.166;18.908;2023-05-07T03:46:54;98213.84;;;6.34;82.92
21401;BME280;18038;50.166;18.908;2023-05-07T03:50:02;98214.00;;;6.41;82.54
21401;BME280;18038;50.166;18.908;2023-05-07T03:53:08;98220.47;;;6.30;82.80
21401;BME280;18038;50.166;18.908;2023-05-07T03:56:16;98221.16;;;6.40;82.84
21401;BME280;18038;50.166;18.908;2023-05-07T03:59:30;98222.13;;;6.31;82.34
21401;BME280;18038;50.166;18.908;2023-05-07T04:02:37;98226.44;;;6.32;82.70
21401;BME280;18038;50.166;18.908;2023-05-07T04:05:44;98232.56;;;6.24;82.58
21401;BME280;18038;50.166;18.908;2023-05-07T04:08:51;98233.72;;;6.22;82.31
21401;BME280;18038;50.166;18.908;2023-05-07T04:11:57;98239.03;;;6.30;82.43
21401;BME280;18038;50.166;18.908;2023-05-07T04:15:09;98243.03;;;6.34;82.29
21401;BME280;18038;50.166;18.908;2023-05-07T04:18:16;98246.16;;;6.29;81.88
21401;BME280;18038;50.166;18.908;2023-05-07T04:21:25;98250.59;;;6.12;82.94
21401;BME280;18038;50.166;18.908;2023-05-07T04:24:32;98254.03;;;5.97;83.23
21401;BME280;18038;50.166;18.908;2023-05-07T04:27:39;98251.22;;;6.06;83.74
21401;BME280;18038;50.166;18.908;2023-05-07T04:30:50;98266.63;;;6.03;83.45
21401;BME280;18038;50.166;18.908;2023-05-07T04:33:58;98267.94;;;5.99;84.01
21401;BME280;18038;50.166;18.908;2023-05-07T04:37:04;98271.13;;;6.02;83.55
21401;BME280;18038;50.166;18.908;2023-05-07T04:40:11;98280.72;;;6.03;83.66
21401;BME280;18038;50.166;18.908;2023-05-07T04:43:19;98288.56;;;5.79;83.68
21401;BME280;18038;50.166;18.908;2023-05-07T04:46:30;98290.53;;;5.77;83.84
21401;BME280;18038;50.166;18.908;2023-05-07T04:49:36;98294.00;;;5.77;83.70
21401;BME280;18038;50.166;18.908;2023-05-07T04:52:46;98304.56;;;5.69;83.77
21401;BME280;18038;50.166;18.908;2023-05-07T04:55:55;98305.72;;;5.66;83.52
21401;BME280;18038;50.166;18.908;2023-05-07T04:59:12;98306.91;;;5.72;83.19
21401;BME280;18038;50.166;18.908;2023-05-07T05:02:21;98307.63;;;5.56;83.26
21401;BME280;18038;50.166;18.908;2023-05-07T05:05:28;98315.00;;;5.44;83.28
21401;BME280;18038;50.166;18.908;2023-05-07T05:08:35;98314.66;;;5.65;83.23
21401;BME280;18038;50.166;18.908;2023-05-07T05:11:42;98306.28;;;5.78;82.46
21401;BME280;18038;50.166;18.908;2023-05-07T05:14:49;98314.66;;;5.65;81.75
21401;BME280;18038;50.166;18.908;2023-05-07T05:17:59;98316.56;;;5.81;81.59
21401;BME280;18038;50.166;18.908;2023-05-07T05:21:06;98321.69;;;5.83;81.29
21401;BME280;18038;50.166;18.908;2023-05-07T05:24:13;98327.97;;;5.74;81.30
21401;BME280;18038;50.166;18.908;2023-05-07T05:27:20;98340.78;;;5.60;81.47
21401;BME280;18038;50.166;18.908;2023-05-07T05:30:33;98335.59;;;5.51;82.16
21401;BME280;18038;50.166;18.908;2023-05-07T05:33:42;98345.28;;;5.60;82.36
21401;BME280;18038;50.166;18.908;2023-05-07T05:36:49;98353.03;;;5.61;82.61
21401;BME280;18038;50.166;18.908;2023-05-07T05:39:55;98342.75;;;5.58;82.22
21401;BME280;18038;50.166;18.908;2023-05-07T05:43:07;98355.69;;;5.61;82.14
21401;BME280;18038;50.166;18.908;2023-05-07T05:46:16;98351.84;;;5.56;82.62
21401;BME280;18038;50.166;18.908;2023-05-07T05:49:28;98354.09;;;5.68;82.52
21401;BME280;18038;50.166;18.908;2023-05-07T05:52:34;98358.72;;;5.66;81.61
21401;BME280;18038;50.166;18.908;2023-05-07T05:55:42;98347.22;;;5.58;81.17
21401;BME280;18038;50.166;18.908;2023-05-07T05:58:48;98357.00;;;5.57;80.99
21401;BME280;18038;50.166;18.908;2023-05-07T06:01:55;98364.25;;;5.73;80.67
21401;BME280;18038;50.166;18.908;2023-05-07T06:05:08;98365.47;;;5.87;80.14
21401;BME280;18038;50.166;18.908;2023-05-07T06:08:19;98368.53;;;6.00;79.90
21401;BME280;18038;50.166;18.908;2023-05-07T06:11:25;98372.34;;;5.98;79.43
21401;BME280;18038;50.166;18.908;2023-05-07T06:14:32;98368.84;;;5.97;80.10
21401;BME280;18038;50.166;18.908;2023-05-07T06:17:38;98370.38;;;5.74;80.11
21401;BME280;18038;50.166;18.908;2023-05-07T06:20:49;98374.28;;;5.69;80.43
21401;BME280;18038;50.166;18.908;2023-05-07T06:24:00;98372.50;;;5.70;80.21
21401;BME280;18038;50.166;18.908;2023-05-07T06:27:07;98375.00;;;5.54;80.50
21401;BME280;18038;50.166;18.908;2023-05-07T06:30:13;98386.63;;;5.79;80.62
21401;BME280;18038;50.166;18.908;2023-05-07T06:33:20;98384.44;;;5.74;80.32
21401;BME280;18038;50.166;18.908;2023-05-07T06:36:29;98383.81;;;5.54;80.79
21401;BME280;18038;50.166;18.908;2023-05-07T06:39:41;98387.97;;;5.57;80.85
21401;BME280;18038;50.166;18.908;2023-05-07T06:42:47;98386.50;;;5.44;80.87
21401;BME280;18038;50.166;18.908;2023-05-07T06:46:03;98394.53;;;5.35;80.74
21401;BME280;18038;50.166;18.908;2023-05-07T06:49:09;98402.09;;;5.30;81.02
21401;BME280;18038;50.166;18.908;2023-05-07T06:52:19;98392.94;;;5.42;80.38
21401;BME280;18038;50.166;18.908;2023-05-07T06:55:28;98406.22;;;5.60;80.03
21401;BME280;18038;50.166;18.908;2023-05-07T06:58:48;98399.91;;;5.43;79.52
21401;BME280;18038;50.166;18.908;2023-05-07T07:01:55;98402.03;;;5.39;79.76
21401;BME280;18038;50.166;18.908;2023-05-07T07:05:06;98407.66;;;5.54;79.40
21401;BME280;18038;50.166;18.908;2023-05-07T07:08:16;98411.19;;;5.45;79.40
21401;BME280;18038;50.166;18.908;2023-05-07T07:11:24;98411.13;;;5.37;79.37
21401;BME280;18038;50.166;18.908;2023-05-07T07:14:31;98420.56;;;5.21;79.35
21401;BME280;18038;50.166;18.908;2023-05-07T07:17:37;98418.84;;;5.12;80.38
21401;BME280;18038;50.166;18.908;2023-05-07T07:20:44;98427.09;;;5.09;80.02
21401;BME280;18038;50.166;18.908;2023-05-07T07:23:53;98430.78;;;5.34;79.77
21401;BME280;18038;50.166;18.908;2023-05-07T07:27:00;98436.31;;;5.41;78.94
21401;BME280;18038;50.166;18.908;2023-05-07T07:30:10;98438.41;;;5.19;79.45
21401;BME280;18038;50.166;18.908;2023-05-07T07:33:20;98438.13;;;5.22;78.89
21401;BME280;18038;50.166;18.908;2023-05-07T07:36:29;98440.69;;;5.14;78.62
21401;BME280;18038;50.166;18.908;2023-05-07T07:39:53;98454.59;;;5.16;78.53
21401;BME280;18038;50.166;18.908;2023-05-07T07:43:03;98448.13;;;5.29;78.12
21401;BME280;18038;50.166;18.908;2023-05-07T07:46:09;98457.63;;;5.49;77.02
21401;BME280;18038;50.166;18.908;2023-05-07T07:49:18;98456.94;;;5.65;76.68
21401;BME280;18038;50.166;18.908;2023-05-07T07:52:24;98469.72;;;5.69;76.70
21401;BME280;18038;50.166;18.908;2023-05-07T07:55:38;98467.81;;;5.80;75.65
21401;BME280;18038;50.166;18.908;2023-05-07T07:58:47;98470.63;;;5.78;75.53
21401;BME280;18038;50.166;18.908;2023-05-07T08:01:55;98471.38;;;5.71;75.00
21401;BME280;18038;50.166;18.908;2023-05-07T08:05:04;98468.06;;;5.68;74.88
21401;BME280;18038;50.166;18.908;2023-05-07T08:08:15;98471.59;;;5.59;74.60
21401;BME280;18038;50.166;18.908;2023-05-07T08:11:26;98471.28;;;5.80;75.14
21401;BME280;18038;50.166;18.908;2023-05-07T08:14:35;98479.00;;;5.92;73.72
21401;BME280;18038;50.166;18.908;2023-05-07T08:17:43;98475.13;;;6.04;72.93
21401;BME280;18038;50.166;18.908;2023-05-07T08:20:50;98474.09;;;5.97;73.02
21401;BME280;18038;50.166;18.908;2023-05-07T08:24:00;98476.31;;;6.09;73.12
21401;BME280;18038;50.166;18.908;2023-05-07T08:27:14;98489.44;;;6.11;72.14
21401;BME280;18038;50.166;18.908;2023-05-07T08:30:21;98485.72;;;6.56;72.03
21401;BME280;18038;50.166;18.908;2023-05-07T08:33:29;98486.13;;;6.69;70.02
21401;BME280;18038;50.166;18.908;2023-05-07T08:36:35;98487.59;;;6.38;70.21
21401;BME280;18038;50.166;18.908;2023-05-07T08:39:42;98494.53;;;6.30;70.34
21401;BME280;18038;50.166;18.908;2023-05-07T08:42:58;98498.03;;;6.31;71.07
21401;BME280;18038;50.166;18.908;2023-05-07T08:46:09;98504.19;;;6.13;71.42
21401;BME280;18038;50.166;18.908;2023-05-07T08:49:18;98511.47;;;5.94;72.71
21401;BME280;18038;50.166;18.908;2023-05-07T08:52:26;98509.75;;;6.02;73.38
21401;BME280;18038;50.166;18.908;2023-05-07T08:55:33;98518.59;;;6.11;71.93
21401;BME280;18038;50.166;18.908;2023-05-07T08:58:42;98520.81;;;6.42;71.96
21401;BME280;18038;50.166;18.908;2023-05-07T09:01:54;98521.09;;;6.65;70.89
21401;BME280;18038;50.166;18.908;2023-05-07T09:05:02;98518.03;;;6.86;70.48
21401;BME280;18038;50.166;18.908;2023-05-07T09:08:09;98523.56;;;6.92;69.50
21401;BME280;18038;50.166;18.908;2023-05-07T09:11:16;98527.19;;;6.91;68.92
21401;BME280;18038;50.166;18.908;2023-05-07T09:14:41;98522.53;;;6.85;68.14
21401;BME280;18038;50.166;18.908;2023-05-07T09:17:48;98530.41;;;6.69;69.91
21401;BME280;18038;50.166;18.908;2023-05-07T09:20:55;98539.75;;;6.81;69.74
21401;BME280;18038;50.166;18.908;2023-05-07T09:24:02;98529.09;;;6.73;68.83
21401;BME280;18038;50.166;18.908;2023-05-07T09:27:17;98533.88;;;6.95;69.54
21401;BME280;18038;50.166;18.908;2023-05-07T09:30:38;98535.56;;;6.70;68.87
21401;BME280;18038;50.166;18.908;2023-05-07T09:33:47;98542.81;;;6.34;70.58
21401;BME280;18038;50.166;18.908;2023-05-07T09:36:55;98546.56;;;6.05;70.50
21401;BME280;18038;50.166;18.908;2023-05-07T09:40:14;98547.78;;;5.93;71.59
21401;BME280;18038;50.166;18.908;2023-05-07T09:43:40;98552.94;;;5.95;72.05
21401;BME280;18038;50.166;18.908;2023-05-07T09:46:54;98558.03;;;6.32;70.77
21401;BME280;18038;50.166;18.908;2023-05-07T09:50:12;98556.88;;;6.08;70.58
21401;BME280;18038;50.166;18.908;2023-05-07T09:53:22;98559.56;;;6.34;71.10
21401;BME280;18038;50.166;18.908;2023-05-07T09:56:32;98552.25;;;6.10;71.30
21401;BME280;18038;50.166;18.908;2023-05-07T09:59:43;98567.09;;;6.03;70.59
21401;BME280;18038;50.166;18.908;2023-05-07T10:03:09;98561.78;;;6.21;70.26
21401;BME280;18038;50.166;18.908;2023-05-07T10:06:28;98566.66;;;6.08;69.88
21401;BME280;18038;50.166;18.908;2023-05-07T10:09:44;98582.34;;;5.83;71.65
21401;BME280;18038;50.166;18.908;2023-05-07T10:13:19;98574.66;;;5.98;71.18
21401;BME280;18038;50.166;18.908;2023-05-07T10:16:41;98587.72;;;5.92;71.13
21401;BME280;18038;50.166;18.908;2023-05-07T10:19:54;98584.28;;;5.63;72.22
21401;BME280;18038;50.166;18.908;2023-05-07T10:23:04;98584.06;;;5.75;71.82
21401;BME280;18038;50.166;18.908;2023-05-07T10:26:19;98583.75;;;5.96;71.22
21401;BME280;18038;50.166;18.908;2023-05-07T10:29:36;98588.94;;;6.15;70.33
21401;BME280;18038;50.166;18.908;2023-05-07T10:32:55;98598.59;;;6.24;70.19
21401;BME280;18038;50.166;18.908;2023-05-07T10:36:14;98597.84;;;6.32;69.29
21401;BME280;18038;50.166;18.908;2023-05-07T10:39:24;98591.75;;;6.40;68.75
21401;BME280;18038;50.166;18.908;2023-05-07T10:42:31;98593.31;;;6.06;70.40
21401;BME280;18038;50.166;18.908;2023-05-07T10:45:41;98597.41;;;6.19;70.75
21401;BME280;18038;50.166;18.908;2023-05-07T10:49:08;98598.69;;;5.97;70.75
21401;BME280;18038;50.166;18.908;2023-05-07T10:52:27;98595.50;;;5.93;71.05
21401;BME280;18038;50.166;18.908;2023-05-07T10:55:40;98594.72;;;5.83;70.86
21401;BME280;18038;50.166;18.908;2023-05-07T11:03:13;98605.72;;;6.06;71.42
21401;BME280;18038;50.166;18.908;2023-05-07T11:06:26;98616.19;;;5.89;71.37
21401;BME280;18038;50.166;18.908;2023-05-07T11:10:02;98618.78;;;5.54;72.07
21401;BME280;18038;50.166;18.908;2023-05-07T11:13:41;98630.59;;;5.59;73.01
21401;BME280;18038;50.166;18.908;2023-05-07T11:17:02;98616.13;;;5.54;73.20
21401;BME280;18038;50.166;18.908;2023-05-07T11:20:09;98618.50;;;5.75;72.92
21401;BME280;18038;50.166;18.908;2023-05-07T11:23:55;98617.53;;;5.94;72.30
21401;BME280;18038;50.166;18.908;2023-05-07T11:27:26;98621.06;;;5.66;72.97
21401;BME280;18038;50.166;18.908;2023-05-07T11:30:34;98623.41;;;5.69;72.71
21401;BME280;18038;50.166;18.908;2023-05-07T11:33:45;98629.97;;;5.38;73.55
21401;BME280;18038;50.166;18.908;2023-05-07T11:36:55;98631.56;;;5.31;75.04
21401;BME280;18038;50.166;18.908;2023-05-07T11:40:19;98640.84;;;5.54;73.62
21401;BME280;18038;50.166;18.908;2023-05-07T11:43:29;98632.19;;;5.52;73.83
21401;BME280;18038;50.166;18.908;2023-05-07T11:46:35;98634.63;;;5.63;73.11
21401;BME280;18038;50.166;18.908;2023-05-07T11:49:42;98636.63;;;5.14;74.29
21401;BME280;18038;50.166;18.908;2023-05-07T11:52:51;98637.22;;;5.08;74.96
21401;BME280;18038;50.166;18.908;2023-05-07T11:55:58;98643.22;;;5.00;75.43
21401;BME280;18038;50.166;18.908;2023-05-07T11:59:07;98636.63;;;5.14;74.28
21401;BME280;18038;50.166;18.908;2023-05-07T12:02:17;98639.63;;;5.39;73.89
21401;BME280;18038;50.166;18.908;2023-05-07T12:05:31;98651.13;;;5.20;74.00
21401;BME280;18038;50.166;18.908;2023-05-07T12:08:41;98651.41;;;5.17;74.37
21401;BME280;18038;50.166;18.908;2023-05-07T12:11:51;98643.53;;;5.35;73.38
21401;BME280;18038;50.166;18.908;2023-05-07T12:15:02;98651.44;;;5.07;73.48
21401;BME280;18038;50.166;18.908;2023-05-07T12:18:17;98660.41;;;5.34;72.86
21401;BME280;18038;50.166;18.908;2023-05-07T12:21:24;98652.94;;;5.57;72.18
21401;BME280;18038;50.166;18.908;2023-05-07T12:24:43;98659.00;;;5.67;71.47
21401;BME280;18038;50.166;18.908;2023-05-07T12:27:51;98659.16;;;5.65;71.11
21401;BME280;18038;50.166;18.908;2023-05-07T12:31:04;98661.47;;;5.96;70.31
21401;BME280;18038;50.166;18.908;2023-05-07T12:34:12;98666.03;;;5.58;71.09
21401;BME280;18038;50.166;18.908;2023-05-07T12:37:23;98668.97;;;5.55;71.99
21401;BME280;18038;50.166;18.908;2023-05-07T12:40:39;98674.06;;;5.66;71.86
21401;BME280;18038;50.166;18.908;2023-05-07T12:43:56;98676.94;;;5.55;72.19
21401;BME280;18038;50.166;18.908;2023-05-07T12:47:06;98672.53;;;5.36;72.80
21401;BME280;18038;50.166;18.908;2023-05-07T12:50:31;98670.56;;;5.38;73.09
21401;BME280;18038;50.166;18.908;2023-05-07T12:53:40;98676.31;;;5.34;72.42
21401;BME280;18038;50.166;18.908;2023-05-07T12:56:47;98677.75;;;5.46;72.14
21401;BME280;18038;50.166;18.908;2023-05-07T12:59:57;98677.75;;;5.56;72.23
21401;BME280;18038;50.166;18.908;2023-05-07T13:03:09;98682.28;;;5.36;72.72
21401;BME280;18038;50.166;18.908;2023-05-07T13:06:17;98683.41;;;5.33;72.75
21401;BME280;18038;50.166;18.908;2023-05-07T13:09:23;98683.34;;;5.15;73.44
21401;BME280;18038;50.166;18.908;2023-05-07T13:12:30;98682.84;;;5.30;72.31
21401;BME280;18038;50.166;18.908;2023-05-07T13:15:36;98678.59;;;5.56;72.14
21401;BME280;18038;50.166;18.908;2023-05-07T13:18:46;98678.53;;;5.94;70.69
21401;BME280;18038;50.166;18.908;2023-05-07T13:21:52;98684.47;;;5.78;69.85
21401;BME280;18038;50.166;18.908;2023-05-07T13:24:59;98684.97;;;5.63;70.59
21401;BME280;18038;50.166;18.908;2023-05-07T13:28:05;98687.94;;;5.60;70.47
21401;BME280;18038;50.166;18.908;2023-05-07T13:31:13;98681.41;;;5.45;70.26
21401;BME280;18038;50.166;18.908;2023-05-07T13:34:23;98689.47;;;5.53;70.78
21401;BME280;18038;50.166;18.908;2023-05-07T13:37:29;98686.47;;;5.38;71.09
21401;BME280;18038;50.166;18.908;2023-05-07T13:40:35;98686.06;;;5.33;71.41
21401;BME280;18038;50.166;18.908;2023-05-07T13:43:44;98680.41;;;5.46;71.24
21401;BME280;18038;50.166;18.908;2023-05-07T13:46:51;98691.59;;;5.50;71.28
21401;BME280;18038;50.166;18.908;2023-05-07T13:50:06;98677.13;;;5.34;70.96
21401;BME280;18038;50.166;18.908;2023-05-07T13:53:14;98682.44;;;5.24;70.85
21401;BME280;18038;50.166;18.908;2023-05-07T13:56:23;98682.69;;;5.41;70.88
21401;BME280;18038;50.166;18.908;2023-05-07T13:59:40;98678.69;;;5.64;70.50
21401;BME280;18038;50.166;18.908;2023-05-07T14:02:54;98689.19;;;5.84;69.71
21401;BME280;18038;50.166;18.908;2023-05-07T14:06:04;98696.25;;;5.93;69.34
21401;BME280;18038;50.166;18.908;2023-05-07T14:09:14;98689.19;;;5.84;69.41
21401;BME280;18038;50.166;18.908;2023-05-07T14:12:20;98686.91;;;5.71;70.16
21401;BME280;18038;50.166;18.908;2023-05-07T14:15:27;98695.56;;;5.63;69.90
21401;BME280;18038;50.166;18.908;2023-05-07T14:18:34;98695.47;;;5.45;70.36
21401;BME280;18038;50.166;18.908;2023-05-07T14:21:44;98701.56;;;5.28;70.59
21401;BME280;18038;50.166;18.908;2023-05-07T14:24:50;98704.63;;;5.23;71.24
21401;BME280;18038;50.166;18.908;2023-05-07T14:28:14;98700.94;;;5.44;70.42
21401;BME280;18038;50.166;18.908;2023-05-07T14:31:20;98708.63;;;5.28;71.01
21401;BME280;18038;50.166;18.908;2023-05-07T14:34:28;98714.41;;;5.23;70.82
21401;BME280;18038;50.166;18.908;2023-05-07T14:37:37;98718.47;;;5.17;71.67
21401;BME280;18038;50.166;18.908;2023-05-07T14:40:44;98724.69;;;5.26;71.87
21401;BME280;18038;50.166;18.908;2023-05-07T14:43:50;98722.53;;;5.02;72.58
21401;BME280;18038;50.166;18.908;2023-05-07T14:46:57;98731.00;;;5.06;72.92
21401;BME280;18038;50.166;18.908;2023-05-07T14:50:04;98737.00;;;5.08;72.24
21401;BME280;18038;50.166;18.908;2023-05-07T14:53:14;98738.41;;;5.02;72.20
21401;BME280;18038;50.166;18.908;2023-05-07T14:56:20;98735.75;;;5.02;72.10
21401;BME280;18038;50.166;18.908;2023-05-07T14:59:27;98741.00;;;5.21;71.50
21401;BME280;18038;50.166;18.908;2023-05-07T15:02:34;98734.31;;;5.27;71.40
21401;BME280;18038;50.166;18.908;2023-05-07T15:05:41;98741.28;;;5.28;71.13
21401;BME280;18038;50.166;18.908;2023-05-07T15:08:50;98736.06;;;5.46;71.15
21401;BME280;18038;50.166;18.908;2023-05-07T15:12:04;98733.69;;;5.53;70.00
21401;BME280;18038;50.166;18.908;2023-05-07T15:15:10;98737.03;;;5.55;70.03
21401;BME280;18038;50.166;18.908;2023-05-07T15:18:21;98745.59;;;5.76;69.57
21401;BME280;18038;50.166;18.908;2023-05-07T15:21:27;98731.25;;;5.69;68.85
21401;BME280;18038;50.166;18.908;2023-05-07T15:24:40;98739.22;;;5.69;69.31
21401;BME280;18038;50.166;18.908;2023-05-07T15:27:46;98740.03;;;5.69;68.94
21401;BME280;18038;50.166;18.908;2023-05-07T15:30:56;98737.34;;;5.52;69.60
21401;BME280;18038;50.166;18.908;2023-05-07T15:34:15;98745.97;;;5.44;70.12
21401;BME280;18038;50.166;18.908;2023-05-07T15:37:22;98749.06;;;5.49;70.61
21401;BME280;18038;50.166;18.908;2023-05-07T15:40:30;98755.53;;;5.17;71.31
21401;BME280;18038;50.166;18.908;2023-05-07T15:43:45;98752.88;;;5.08;71.78
21401;BME280;18038;50.166;18.908;2023-05-07T15:46:53;98761.97;;;4.86;72.51
21401;BME280;18038;50.166;18.908;2023-05-07T15:50:07;98764.75;;;4.84;73.14
21401;BME280;18038;50.166;18.908;2023-05-07T15:53:25;98765.88;;;4.81;73.49
21401;BME280;18038;50.166;18.908;2023-05-07T15:56:34;98764.06;;;4.92;73.44
21401;BME280;18038;50.166;18.908;2023-05-07T15:59:40;98774.34;;;4.95;72.87
21401;BME280;18038;50.166;18.908;2023-05-07T16:02:47;98781.03;;;4.50;74.36
21401;BME280;18038;50.166;18.908;2023-05-07T16:05:59;98772.81;;;4.44;74.79
21401;BME280;18038;50.166;18.908;2023-05-07T16:09:06;98771.13;;;4.43;75.18
21401;BME280;18038;50.166;18.908;2023-05-07T16:12:21;98770.84;;;4.26;76.04
21401;BME280;18038;50.166;18.908;2023-05-07T16:15:30;98779.06;;;4.23;76.24
21401;BME280;18038;50.166;18.908;2023-05-07T16:18:36;98783.09;;;4.37;75.91
21401;BME280;18038;50.166;18.908;2023-05-07T16:21:43;98784.94;;;4.46;75.85
21401;BME280;18038;50.166;18.908;2023-05-07T16:24:49;98783.41;;;4.53;74.97
21401;BME280;18038;50.166;18.908;2023-05-07T16:27:59;98777.00;;;4.56;74.25
21401;BME280;18038;50.166;18.908;2023-05-07T16:31:06;98767.13;;;4.39;74.58
21401;BME280;18038;50.166;18.908;2023-05-07T16:34:14;98771.00;;;4.34;74.34
21401;BME280;18038;50.166;18.908;2023-05-07T16:37:20;98761.66;;;4.40;74.98
21401;BME280;18038;50.166;18.908;2023-05-07T16:40:27;98771.56;;;4.38;74.78
21401;BME280;18038;50.166;18.908;2023-05-07T16:43:38;98770.03;;;4.35;74.97
21401;BME280;18038;50.166;18.908;2023-05-07T16:46:45;98770.69;;;4.18;75.33
21401;BME280;18038;50.166;18.908;2023-05-07T16:49:51;98767.25;;;4.47;74.96